createdAt,value
2019-05-15T00:01:19.074Z,84.96
2019-05-15T00:03:51.531Z,84.96
2019-05-15T00:06:24.607Z,84.82
2019-05-15T00:08:58.909Z,85.28
2019-05-15T00:11:32.127Z,85.20
2019-05-15T00:14:05.247Z,85.72
2019-05-15T00:16:38.794Z,85.52
2019-05-15T00:19:11.888Z,85.65
2019-05-15T00:21:44.864Z,85.54
2019-05-15T00:24:17.942Z,85.54
2019-05-15T00:26:50.941Z,86.02
2019-05-15T00:29:23.891Z,85.99
2019-05-15T00:31:58.951Z,86.13
2019-05-15T00:34:31.717Z,86.33
2019-05-15T00:37:04.648Z,86.66
2019-05-15T00:39:39.040Z,86.84
2019-05-15T00:42:12.382Z,86.88
2019-05-15T00:44:45.426Z,87.02
2019-05-15T00:47:18.337Z,87.25
2019-05-15T00:49:51.209Z,87.45
2019-05-15T00:52:24.242Z,87.66
2019-05-15T00:54:58.997Z,87.76
2019-05-15T00:57:31.947Z,88.29
2019-05-15T01:00:05.490Z,88.19
2019-05-15T01:02:38.979Z,88.69
2019-05-15T01:05:12.144Z,88.69
2019-05-15T01:07:45.102Z,88.91
2019-05-15T01:10:19.407Z,88.58
2019-05-15T01:12:52.401Z,88.56
2019-05-15T01:15:25.453Z,88.81
2019-05-15T01:17:58.712Z,89.30
2019-05-15T01:20:31.633Z,89.67
2019-05-15T01:23:04.951Z,89.67
2019-05-15T01:25:39.051Z,89.65
2019-05-15T01:28:12.102Z,89.63
2019-05-15T01:30:45.036Z,89.99
2019-05-15T01:33:19.009Z,90.43
2019-05-15T01:35:52.003Z,90.43
2019-05-15T01:38:24.893Z,90.62
2019-05-15T01:40:59.180Z,91.00
2019-05-15T01:43:32.157Z,91.18
2019-05-15T01:46:05.109Z,91.26
2019-05-15T01:48:38.973Z,91.26
2019-05-15T01:51:12.113Z,91.55
2019-05-15T01:53:45.014Z,91.64
2019-05-15T01:56:18.892Z,91.64
2019-05-15T01:58:51.954Z,91.96
2019-05-15T02:01:24.949Z,91.91
2019-05-15T02:03:59.041Z,92.25
2019-05-15T02:06:31.939Z,92.25
2019-05-15T02:09:08.334Z,92.09
2019-05-15T02:11:41.334Z,92.43
2019-05-15T02:14:14.311Z,92.49
2019-05-15T02:16:48.352Z,92.60
2019-05-15T02:19:21.759Z,92.60
2019-05-15T02:21:54.710Z,92.44
2019-05-15T02:24:28.379Z,92.44
2019-05-15T02:27:01.739Z,92.43
2019-05-15T02:29:34.645Z,92.52
2019-05-15T02:32:10.145Z,92.52
2019-05-15T02:34:42.768Z,92.81
2019-05-15T02:37:15.641Z,92.81
2019-05-15T02:39:49.605Z,93.23
2019-05-15T02:42:22.765Z,92.87
2019-05-15T02:44:58.496Z,92.71
2019-05-15T02:47:30.348Z,92.71
2019-05-15T02:50:03.655Z,92.58
2019-05-15T02:52:39.628Z,92.71
2019-05-15T02:55:11.396Z,92.71
2019-05-15T02:57:44.320Z,92.79
2019-05-15T03:00:36.610Z,93.31
2019-05-15T03:02:52.730Z,93.31
2019-05-15T03:05:29.282Z,94.04
2019-05-15T03:08:00.736Z,93.50
2019-05-15T03:10:34.027Z,93.22
2019-05-15T03:13:09.760Z,93.57
2019-05-15T03:15:42.096Z,93.77
2019-05-15T03:18:15.489Z,93.77
2019-05-15T03:20:50.174Z,93.36
2019-05-15T03:23:23.466Z,93.56
2019-05-15T03:25:59.561Z,93.56
2019-05-15T03:28:31.174Z,93.07
2019-05-15T03:31:25.940Z,93.21
2019-05-15T03:33:45.842Z,93.21
2019-05-15T03:36:14.317Z,93.35
2019-05-15T03:38:49.930Z,93.06
2019-05-15T03:41:22.172Z,93.39
2019-05-15T03:43:55.167Z,93.35
2019-05-15T03:46:29.335Z,93.63
2019-05-15T03:49:02.627Z,93.63
2019-05-15T03:51:39.916Z,93.91
2019-05-15T03:54:10.782Z,94.20
2019-05-15T03:56:44.147Z,94.09
2019-05-15T03:59:19.310Z,94.09
2019-05-15T04:01:52.110Z,93.90
2019-05-15T04:04:25.149Z,94.14
2019-05-15T04:06:59.614Z,94.14
2019-05-15T04:09:32.861Z,94.12
2019-05-15T04:12:09.181Z,94.65
2019-05-15T04:14:40.596Z,94.65
2019-05-15T04:17:13.678Z,94.78
2019-05-15T04:19:49.502Z,94.93
2019-05-15T04:22:21.433Z,94.93
2019-05-15T04:24:54.990Z,94.60
2019-05-15T04:27:29.346Z,94.60
2019-05-15T04:30:02.358Z,94.53
2019-05-15T04:32:35.323Z,94.49
2019-05-15T04:35:10.141Z,94.47
2019-05-15T04:37:43.355Z,94.37
2019-05-15T04:40:19.178Z,94.41
2019-05-15T04:42:51.433Z,94.55
2019-05-15T04:45:24.313Z,94.55
2019-05-15T04:47:58.761Z,94.40
2019-05-15T04:50:32.206Z,94.40
2019-05-15T04:53:05.304Z,94.40
2019-05-15T04:55:40.297Z,94.09
2019-05-15T04:58:13.287Z,94.09
2019-05-15T05:00:51.137Z,93.88
2019-05-15T05:03:24.234Z,93.88
2019-05-15T05:05:59.085Z,93.47
2019-05-15T05:08:31.964Z,93.01
2019-05-15T05:11:05.039Z,91.61
2019-05-15T05:13:39.281Z,91.61
2019-05-15T05:16:12.613Z,91.32
2019-05-15T05:18:48.593Z,90.98
2019-05-15T05:21:20.560Z,90.31
2019-05-15T05:23:53.535Z,89.71
2019-05-15T05:26:29.165Z,88.43
2019-05-15T05:29:01.678Z,88.47
2019-05-15T05:31:34.665Z,88.66
2019-05-15T05:34:08.278Z,88.20
2019-05-15T05:36:41.407Z,88.20
2019-05-15T05:39:17.683Z,86.22
2019-05-15T05:41:49.341Z,86.10
2019-05-15T05:44:22.790Z,85.67
2019-05-15T05:46:58.112Z,85.67
2019-05-15T05:49:30.377Z,84.34
2019-05-15T05:52:03.383Z,84.29
2019-05-15T05:54:38.272Z,84.29
2019-05-15T05:57:11.438Z,83.87
2019-05-15T05:59:44.409Z,83.69
2019-05-15T06:02:18.583Z,82.53
2019-05-15T06:04:51.637Z,82.27
2019-05-15T06:07:24.647Z,83.87
2019-05-15T06:09:58.105Z,81.72
2019-05-15T06:12:31.366Z,81.64
2019-05-15T06:15:04.892Z,80.54
2019-05-15T06:17:39.274Z,80.01
2019-05-15T06:20:12.705Z,78.77
2019-05-15T06:22:47.777Z,77.11
2019-05-15T06:25:20.545Z,76.43
2019-05-15T06:27:53.469Z,76.43
2019-05-15T06:30:30.735Z,75.79
2019-05-15T06:33:09.387Z,74.94
2019-05-15T06:35:39.425Z,74.79
2019-05-15T06:38:12.789Z,74.79
2019-05-15T06:40:48.476Z,74.53
2019-05-15T06:43:20.773Z,73.69
2019-05-15T06:45:53.677Z,72.89
2019-05-15T06:48:28.711Z,71.87
2019-05-15T06:51:01.328Z,67.58
2019-05-15T06:53:34.423Z,68.28
2019-05-15T06:56:07.970Z,68.28
2019-05-15T06:58:41.731Z,64.59
2019-05-15T07:01:15.050Z,61.12
2019-05-15T07:03:48.536Z,55.00
2019-05-15T07:06:21.632Z,53.50
2019-05-15T07:08:54.816Z,53.50
2019-05-15T07:11:28.179Z,50.88
2019-05-15T07:14:01.311Z,52.92
2019-05-15T07:16:34.536Z,53.03
2019-05-15T07:19:08.296Z,53.03
2019-05-15T07:21:41.385Z,51.38
2019-05-15T07:24:14.460Z,51.29
2019-05-15T07:26:48.363Z,48.80
2019-05-15T07:29:21.573Z,47.54
2019-05-15T07:31:54.556Z,47.54
2019-05-15T07:34:28.309Z,48.10
2019-05-15T07:37:01.530Z,46.15
2019-05-15T07:39:34.528Z,44.83
2019-05-15T07:42:08.577Z,44.83
2019-05-15T07:44:41.743Z,43.66
2019-05-15T07:47:14.685Z,43.33
2019-05-15T07:49:49.220Z,40.77
2019-05-15T07:52:22.265Z,40.99
2019-05-15T07:54:55.442Z,40.99
2019-05-15T07:57:29.867Z,39.45
2019-05-15T08:00:04.293Z,39.50
2019-05-15T08:02:38.182Z,38.15
2019-05-15T08:05:11.870Z,36.96
2019-05-15T08:07:44.923Z,37.90
2019-05-15T08:10:18.542Z,37.90
2019-05-15T08:12:51.519Z,34.89
2019-05-15T08:15:25.010Z,31.21
2019-05-15T08:18:08.187Z,30.53
2019-05-15T08:20:32.669Z,27.08
2019-05-15T08:23:05.651Z,26.03
2019-05-15T08:25:39.015Z,25.07
2019-05-15T08:28:12.083Z,25.07
2019-05-15T08:30:45.142Z,24.24
2019-05-15T08:33:18.394Z,22.03
2019-05-15T08:35:52.170Z,21.69
2019-05-15T08:38:25.171Z,21.11
2019-05-15T08:40:59.211Z,21.11
2019-05-15T08:43:32.339Z,19.92
2019-05-15T08:46:08.001Z,19.43
2019-05-15T08:48:40.443Z,20.32
2019-05-15T08:51:13.411Z,20.60
2019-05-15T08:53:48.635Z,20.60
2019-05-15T08:56:20.941Z,18.87
2019-05-15T08:58:53.832Z,19.98
2019-05-15T09:01:28.764Z,18.85
2019-05-15T09:04:01.388Z,18.85
2019-05-15T09:06:34.277Z,19.66
2019-05-15T09:09:09.609Z,18.14
2019-05-15T09:11:41.981Z,18.14
2019-05-15T09:14:14.854Z,18.72
2019-05-15T09:16:48.985Z,19.28
2019-05-15T09:19:22.099Z,16.07
2019-05-15T09:21:55.588Z,16.07
2019-05-15T09:24:28.749Z,16.08
2019-05-15T09:27:01.724Z,17.06
2019-05-15T09:29:34.672Z,17.16
2019-05-15T09:32:08.292Z,17.16
2019-05-15T09:34:50.654Z,18.71
2019-05-15T09:37:18.019Z,19.79
2019-05-15T09:39:51.051Z,18.27
2019-05-15T09:42:24.025Z,18.27
2019-05-15T09:44:58.232Z,18.83
2019-05-15T09:47:31.375Z,18.52
2019-05-15T09:50:04.745Z,18.31
2019-05-15T09:52:39.067Z,17.16
2019-05-15T09:55:12.775Z,18.50
2019-05-15T09:57:45.622Z,17.13
2019-05-15T10:00:20.357Z,18.06
2019-05-15T10:02:53.448Z,17.68
2019-05-15T10:05:28.097Z,18.38
2019-05-15T10:08:01.313Z,16.71
2019-05-15T10:10:34.281Z,16.29
2019-05-15T10:13:09.031Z,16.82
2019-05-15T10:15:41.914Z,19.08
2019-05-15T10:18:14.943Z,17.90
2019-05-15T10:20:48.718Z,17.90
2019-05-15T10:23:21.605Z,16.56
2019-05-15T10:25:54.658Z,16.56
2019-05-15T10:28:29.271Z,15.31
2019-05-15T10:31:02.294Z,14.08
2019-05-15T10:33:35.209Z,16.06
2019-05-15T10:36:08.636Z,15.67
2019-05-15T10:38:41.695Z,15.67
2019-05-15T10:41:15.290Z,16.90
2019-05-15T10:43:55.994Z,16.88
2019-05-15T10:46:23.032Z,17.11
2019-05-15T10:48:58.430Z,16.85
2019-05-15T10:51:30.923Z,16.27
2019-05-15T10:54:03.964Z,18.82
2019-05-15T10:56:38.601Z,17.13
2019-05-15T10:59:11.846Z,17.13
2019-05-15T11:01:44.764Z,18.01
2019-05-15T11:04:18.129Z,18.58
2019-05-15T11:06:51.124Z,16.53
2019-05-15T11:09:23.952Z,16.53
2019-05-15T11:11:58.334Z,14.49
2019-05-15T11:14:31.323Z,13.90
2019-05-15T11:17:04.166Z,15.46
2019-05-15T11:19:40.431Z,17.02
2019-05-15T11:22:11.583Z,18.49
2019-05-15T11:24:44.699Z,17.09
2019-05-15T11:27:19.111Z,16.14
2019-05-15T11:29:51.964Z,16.24
2019-05-15T11:32:24.835Z,13.85
2019-05-15T11:34:58.283Z,16.35
2019-05-15T11:37:31.194Z,15.43
2019-05-15T11:40:05.299Z,17.14
2019-05-15T11:42:39.453Z,18.02
2019-05-15T11:45:13.347Z,17.88
2019-05-15T11:47:48.292Z,16.96
2019-05-15T11:50:21.918Z,18.59
2019-05-15T11:52:54.743Z,18.59
2019-05-15T11:55:29.188Z,17.59
2019-05-15T11:58:02.090Z,17.34
2019-05-15T12:00:35.111Z,18.01
2019-05-15T12:03:08.943Z,19.79
2019-05-15T12:05:42.033Z,18.27
2019-05-15T12:08:14.855Z,18.27
2019-05-15T12:10:47.814Z,17.28
2019-05-15T12:13:20.634Z,16.37
2019-05-15T12:15:53.482Z,19.19
2019-05-15T12:18:28.545Z,18.11
2019-05-15T12:21:01.229Z,17.92
2019-05-15T12:23:34.277Z,17.92
2019-05-15T12:26:08.990Z,16.62
2019-05-15T12:28:42.107Z,17.19
2019-05-15T12:31:14.970Z,19.03
2019-05-15T12:33:48.959Z,18.28
2019-05-15T12:36:45.347Z,18.08
2019-05-15T12:38:56.439Z,16.37
2019-05-15T13:02:08.241Z,18.68
2019-05-15T13:04:41.237Z,20.21
2019-05-15T13:07:16.841Z,19.50
2019-05-15T13:09:49.225Z,20.46
2019-05-15T13:12:22.345Z,19.95
2019-05-15T13:14:55.263Z,19.52
2019-05-15T13:17:29.091Z,22.11
2019-05-15T13:20:02.986Z,22.49
2019-05-15T13:22:36.559Z,20.80
2019-05-15T13:25:11.532Z,20.79
2019-05-15T13:27:44.431Z,18.80
2019-05-15T13:30:18.318Z,21.38
2019-05-15T13:32:51.350Z,20.88
2019-05-15T13:35:24.196Z,20.70
2019-05-15T13:37:58.654Z,19.72
2019-05-15T13:40:37.595Z,19.72
2019-05-15T13:43:08.351Z,20.96
2019-05-15T13:45:40.906Z,20.57
2019-05-15T13:48:16.413Z,19.80
2019-05-15T13:50:48.416Z,19.02
2019-05-15T13:53:21.312Z,21.89
2019-05-15T13:55:54.228Z,20.46
2019-05-15T13:58:28.246Z,22.95
2019-05-15T14:01:01.533Z,22.95
2019-05-15T14:03:34.352Z,22.37
2019-05-15T14:06:09.423Z,23.20
2019-05-15T14:08:41.737Z,22.47
2019-05-15T14:11:14.580Z,22.50
2019-05-15T14:13:48.610Z,24.05
2019-05-15T14:16:21.782Z,23.85
2019-05-15T14:18:54.613Z,23.85
2019-05-15T14:21:28.611Z,24.39
2019-05-15T14:24:01.846Z,24.39
2019-05-15T14:26:35.133Z,24.76
2019-05-15T14:29:09.003Z,24.60
2019-05-15T14:31:42.131Z,25.01
2019-05-15T14:34:15.265Z,25.09
2019-05-15T14:36:48.460Z,24.91
2019-05-15T14:39:22.306Z,25.65
2019-05-15T14:41:55.238Z,22.67
2019-05-15T14:44:28.212Z,26.28
2019-05-15T14:47:01.122Z,26.28
2019-05-15T14:49:35.795Z,26.61
2019-05-15T14:52:09.535Z,27.56
2019-05-15T14:54:42.783Z,27.56
2019-05-15T14:57:18.189Z,26.80
2019-05-15T14:59:50.502Z,26.80
2019-05-15T15:02:23.456Z,26.17
2019-05-15T15:04:59.228Z,26.34
2019-05-15T15:07:31.365Z,28.29
2019-05-15T15:10:05.049Z,28.29
2019-05-15T15:12:39.681Z,26.69
2019-05-15T15:15:12.970Z,27.98
2019-05-15T15:17:45.817Z,27.98
2019-05-15T15:20:18.828Z,26.85
2019-05-15T15:22:51.741Z,28.51
2019-05-15T15:25:25.147Z,28.51
2019-05-15T15:27:58.780Z,27.46
2019-05-15T15:30:31.710Z,27.46
2019-05-15T15:33:04.861Z,28.09
2019-05-15T15:35:38.283Z,28.09
2019-05-15T15:38:13.494Z,29.82
2019-05-15T15:40:48.157Z,27.73
2019-05-15T15:43:20.873Z,29.32
2019-05-15T15:45:53.761Z,30.77
2019-05-15T15:48:28.540Z,31.04
2019-05-15T15:51:01.709Z,30.87
2019-05-15T15:53:34.730Z,32.42
2019-05-15T15:56:10.679Z,32.42
2019-05-15T15:58:42.888Z,31.16
2019-05-15T16:01:18.368Z,31.16
2019-05-15T16:03:50.729Z,31.31
2019-05-15T16:06:23.935Z,31.31
2019-05-15T16:08:59.403Z,32.48
2019-05-15T16:11:31.791Z,32.15
2019-05-15T16:14:04.880Z,32.89
2019-05-15T16:16:38.185Z,33.63
2019-05-15T16:19:11.579Z,35.64
2019-05-15T16:21:44.560Z,35.64
2019-05-15T16:24:20.802Z,36.28
2019-05-15T16:26:52.131Z,36.28
2019-05-15T16:29:25.193Z,37.16
2019-05-15T16:31:58.262Z,36.30
2019-05-15T16:34:31.181Z,36.25
2019-05-15T16:37:04.132Z,36.25
2019-05-15T16:39:38.199Z,37.67
2019-05-15T16:42:11.316Z,37.80
2019-05-15T16:44:44.327Z,38.21
2019-05-15T16:47:18.609Z,37.78
2019-05-15T16:49:51.737Z,37.78
2019-05-15T16:52:24.584Z,36.96
2019-05-15T16:54:58.224Z,37.69
2019-05-15T16:57:31.174Z,37.98
2019-05-15T17:00:04.582Z,37.98
2019-05-15T17:02:39.284Z,38.12
2019-05-15T17:05:13.813Z,38.12
2019-05-15T17:07:48.862Z,38.77
2019-05-15T17:10:21.434Z,39.87
2019-05-15T17:12:54.397Z,38.37
2019-05-15T17:15:28.044Z,39.57
2019-05-15T17:18:01.131Z,39.57
2019-05-15T17:20:34.010Z,40.17
2019-05-15T17:23:08.680Z,40.17
2019-05-15T17:25:41.798Z,40.13
2019-05-15T17:28:15.021Z,39.77
2019-05-15T17:30:49.002Z,40.60
2019-05-15T17:33:21.933Z,40.78
2019-05-15T17:35:54.872Z,40.78
2019-05-15T17:38:28.656Z,41.40
2019-05-15T17:41:03.060Z,41.40
2019-05-15T17:43:37.943Z,42.65
2019-05-15T17:46:10.827Z,43.30
2019-05-15T17:48:43.883Z,44.20
2019-05-15T17:51:17.740Z,44.51
2019-05-15T17:53:50.976Z,44.51
2019-05-15T17:56:23.916Z,45.58
2019-05-15T17:58:58.200Z,45.58
2019-05-15T18:01:31.131Z,46.23
2019-05-15T18:04:04.365Z,47.11
2019-05-15T18:06:39.763Z,47.23
2019-05-15T18:09:11.952Z,47.85
2019-05-15T18:11:45.080Z,48.04
2019-05-15T18:14:18.127Z,48.04
2019-05-15T18:16:51.127Z,48.47
2019-05-15T18:19:24.364Z,49.34
2019-05-15T18:21:59.244Z,49.62
2019-05-15T18:24:32.325Z,49.96
2019-05-15T18:27:05.272Z,49.96
2019-05-15T18:29:38.731Z,50.19
2019-05-15T18:32:12.184Z,51.76
2019-05-15T18:34:45.231Z,52.74
2019-05-15T18:37:19.161Z,52.74
2019-05-15T18:40:02.451Z,51.72
2019-05-15T18:42:30.529Z,52.18
2019-05-15T18:45:03.951Z,52.29
2019-05-15T18:47:38.963Z,53.61
2019-05-15T18:50:13.581Z,53.61
2019-05-15T18:52:48.835Z,54.46
2019-05-15T18:55:21.947Z,55.64
2019-05-15T18:57:54.851Z,55.30
2019-05-15T19:00:29.538Z,56.15
2019-05-15T19:03:15.134Z,56.27
2019-05-15T19:05:38.697Z,56.21
2019-05-15T19:08:11.704Z,56.21
2019-05-15T19:10:44.644Z,57.30
2019-05-15T19:13:17.576Z,57.61
2019-05-15T19:15:50.538Z,57.61
2019-05-15T19:18:23.673Z,58.01
2019-05-15T19:20:58.661Z,58.19
2019-05-15T19:23:32.092Z,58.19
2019-05-15T19:26:05.007Z,58.32
2019-05-15T19:28:39.121Z,58.50
2019-05-15T19:31:23.230Z,58.50
2019-05-15T19:33:47.447Z,59.58
2019-05-15T19:36:20.422Z,59.46
2019-05-15T19:38:53.920Z,60.80
2019-05-15T19:41:28.881Z,61.19
2019-05-15T19:44:01.788Z,61.76
2019-05-15T19:46:34.982Z,62.75
2019-05-15T19:49:08.766Z,62.75
2019-05-15T19:51:41.800Z,63.06
2019-05-15T19:54:14.819Z,63.79
2019-05-15T19:56:48.200Z,63.92
2019-05-15T19:59:22.681Z,63.92
2019-05-15T20:01:57.770Z,62.71
2019-05-15T20:04:31.135Z,62.71
2019-05-15T20:07:04.132Z,61.88
2019-05-15T20:09:38.369Z,60.57
2019-05-15T20:12:12.141Z,60.57
2019-05-15T20:14:45.383Z,60.60
2019-05-15T20:17:18.396Z,59.85
2019-05-15T20:19:51.361Z,60.51
2019-05-15T20:22:24.488Z,60.47
2019-05-15T20:24:58.826Z,60.57
2019-05-15T20:27:32.030Z,61.11
2019-05-15T20:30:05.828Z,61.11
2019-05-15T20:32:39.005Z,62.13
2019-05-15T20:35:12.422Z,61.54
2019-05-15T20:37:45.721Z,63.30
2019-05-15T20:40:19.621Z,63.30
2019-05-15T20:42:52.632Z,62.75
2019-05-15T20:45:25.675Z,62.75
2019-05-15T20:47:58.666Z,62.49
2019-05-15T20:50:31.603Z,62.49
2019-05-15T20:53:04.542Z,63.23
2019-05-15T20:55:38.063Z,63.48
2019-05-15T20:58:11.474Z,63.58
2019-05-15T21:00:44.574Z,63.93
2019-05-15T21:03:17.904Z,64.93
2019-05-15T21:05:51.420Z,64.93
2019-05-15T21:08:24.322Z,65.72
2019-05-15T21:10:58.774Z,65.72
2019-05-15T21:13:31.898Z,66.64
2019-05-15T21:16:04.884Z,65.97
2019-05-15T21:18:38.237Z,66.92
2019-05-15T21:21:12.060Z,66.92
2019-05-15T21:23:44.982Z,67.57
2019-05-15T21:26:18.752Z,68.07
2019-05-15T21:28:51.900Z,67.91
2019-05-15T21:31:25.056Z,67.91
2019-05-15T21:33:58.880Z,68.29
2019-05-15T21:36:31.896Z,68.20
2019-05-15T21:39:05.888Z,68.20
2019-05-15T21:41:39.065Z,68.17
2019-05-15T21:44:12.050Z,68.61
2019-05-15T21:46:45.207Z,68.61
2019-05-15T21:49:19.190Z,69.60
2019-05-15T21:51:52.182Z,70.08
2019-05-15T21:54:25.300Z,70.08
2019-05-15T21:57:12.856Z,69.71
2019-05-15T21:59:32.947Z,70.03
2019-05-15T22:02:05.844Z,70.03
2019-05-15T22:04:51.917Z,70.26
2019-05-15T22:07:13.600Z,69.83
2019-05-15T22:09:48.581Z,69.83
2019-05-15T22:12:21.572Z,69.66
2019-05-15T22:14:54.538Z,70.44
2019-05-15T22:17:29.348Z,70.58
2019-05-15T22:20:02.377Z,70.58
2019-05-15T22:22:35.344Z,71.61
2019-05-15T22:25:11.216Z,72.29
2019-05-15T22:27:44.307Z,72.44
2019-05-15T22:30:17.855Z,73.08
2019-05-15T22:32:50.851Z,73.08
2019-05-15T22:35:24.129Z,73.78
2019-05-15T22:37:58.405Z,73.78
2019-05-15T22:40:31.654Z,74.16
2019-05-15T22:43:04.739Z,74.58
2019-05-15T22:45:37.827Z,74.58
2019-05-15T22:48:10.927Z,75.06
2019-05-15T22:50:43.898Z,75.64
2019-05-15T22:53:17.801Z,75.64
2019-05-15T22:55:50.876Z,75.52
2019-05-15T22:58:23.788Z,75.52
2019-05-15T23:00:59.492Z,76.28
2019-05-15T23:03:31.551Z,76.75
2019-05-15T23:06:04.644Z,76.49
2019-05-15T23:08:38.518Z,76.90
2019-05-15T23:11:11.597Z,77.01
2019-05-15T23:13:44.665Z,76.60
2019-05-15T23:16:18.352Z,77.02
2019-05-15T23:18:51.438Z,77.69
2019-05-15T23:21:24.856Z,77.74
2019-05-15T23:23:57.966Z,78.11
2019-05-15T23:26:30.920Z,78.58
2019-05-15T23:29:03.891Z,78.67
2019-05-15T23:31:36.898Z,79.19
2019-05-15T23:34:10.500Z,79.09
2019-05-15T23:36:43.437Z,79.47
2019-05-15T23:39:18.267Z,79.63
2019-05-15T23:41:51.064Z,79.72
2019-05-15T23:44:23.959Z,79.72
2019-05-15T23:46:56.964Z,79.75
2019-05-15T23:49:29.867Z,79.82
2019-05-15T23:52:02.892Z,80.11
2019-05-15T23:54:38.397Z,80.42
2019-05-15T23:57:10.842Z,81.08
2019-05-15T23:59:43.751Z,81.08
